Terminal Aerodrome Forecast
Issued by NWS Charleston, WV

Current Version | Previous Version | Graphics & Text | Print | Product List | Glossary On
Versions: 1 2 3 4 5 6 7 8 9 10 11 12 13 14 15 16 17 18 19 20 21 22 23
000
FTUS41 KRLX 090900 AAA
TAFBKW
TAF AMD
KBKW 090924Z 0909/1006 24005KT P6SM BKN009 OVC015
      TEMPO 0910/0911 VRB13KT 3SM -SHRA BKN025
     FM091100 26005KT 6SM -RA BR SCT015 BKN025
     FM091400 27008KT P6SM BKN025
     FM092300 28006KT P6SM SCT045=

USA.gov is the U.S. government's official web portal to all federal, state and local government web resources and services.